Time;durP1;ratioP1;P1;durP2;ratioP2;P2;SDS_P1;SDS_P2;PMS_P1;PMS_P2;Temp;Humidity;BMP_temperature;BMP_pressure;BME280_temperature;BME280_humidity;BME280_pressure;Samples;Min_cycle;Max_cycle;Signal;HPM_P1;HPM_P2
2022/04/13 00:02:14;;;;;;;4.85;2.20;;;15.50;99.40;;;;;;4972451;28;20196;-72
2022/04/13 00:04:39;;;;;;;4.03;2.10;;;15.50;99.70;;;;;;5074659;28;20236;-73
2022/04/13 00:07:10;;;;;;;5.68;2.40;;;15.50;99.90;;;;;;4980395;28;20279;-72
2022/04/13 00:09:35;;;;;;;3.08;2.00;;;15.50;99.90;;;;;;4987031;28;20183;-73
2022/04/13 00:12:09;;;;;;;2.85;2.25;;;15.50;99.90;;;;;;4988951;28;20180;-72
2022/04/13 00:14:36;;;;;;;3.60;2.35;;;15.40;99.90;;;;;;4985370;28;20187;-72
2022/04/13 00:17:04;;;;;;;4.65;2.30;;;15.40;99.90;;;;;;5020830;28;20353;-72
2022/04/13 00:19:30;;;;;;;4.45;2.40;;;15.40;99.90;;;;;;4983025;28;20172;-72
2022/04/13 00:21:57;;;;;;;4.50;2.60;;;15.40;99.90;;;;;;5027228;28;20173;-72
2022/04/13 00:24:25;;;;;;;3.33;2.15;;;15.40;99.90;;;;;;4997736;28;20184;-71
2022/04/13 00:26:55;;;;;;;3.25;2.20;;;15.40;99.90;;;;;;5012445;28;20413;-72
2022/04/13 00:29:20;;;;;;;4.88;2.05;;;15.30;99.90;;;;;;4970785;28;20250;-71
2022/04/13 00:31:46;;;;;;;2.83;2.00;;;15.30;99.90;;;;;;4969499;28;20188;-72
2022/04/13 00:34:11;;;;;;;3.35;2.10;;;15.30;99.90;;;;;;4969918;28;20189;-72
2022/04/13 00:36:42;;;;;;;3.15;2.22;;;15.30;99.90;;;;;;4956204;28;20271;-72
2022/04/13 00:39:07;;;;;;;2.90;2.10;;;15.20;99.90;;;;;;5007529;28;20243;-72
2022/04/13 00:41:35;;;;;;;3.15;2.20;;;15.20;99.90;;;;;;4971247;28;20203;-72
2022/04/13 00:44:06;;;;;;;3.47;2.33;;;15.20;99.90;;;;;;4971193;28;20284;-71
2022/04/13 00:46:35;;;;;;;3.58;2.20;;;15.20;99.90;;;;;;4993000;28;20196;-72
2022/04/13 00:49:02;;;;;;;3.92;2.20;;;15.20;99.90;;;;;;4968754;28;20181;-73
2022/04/13 00:51:28;;;;;;;3.05;1.95;;;15.10;99.90;;;;;;4983137;28;20214;-72
2022/04/13 00:53:56;;;;;;;3.10;2.13;;;15.10;99.90;;;;;;4968068;28;20267;-72
2022/04/13 00:56:27;;;;;;;3.25;2.08;;;15.10;99.90;;;;;;4956737;28;20304;-65
2022/04/13 00:58:55;;;;;;;3.70;2.67;;;15.10;99.90;;;;;;4998176;28;20192;-72
2022/04/13 01:01:25;;;;;;;4.60;2.50;;;15.10;99.90;;;;;;4973489;28;20717;-73
2022/04/13 01:03:56;;;;;;;3.42;2.13;;;15.10;99.90;;;;;;4984892;28;20196;-73
2022/04/13 01:06:24;;;;;;;4.20;2.60;;;15.10;99.90;;;;;;4968874;28;20184;-72
2022/04/13 01:08:50;;;;;;;4.18;2.70;;;15.10;99.90;;;;;;4958484;28;20188;-73
2022/04/13 01:11:19;;;;;;;3.22;2.22;;;15.10;99.90;;;;;;4976534;28;20204;-72
2022/04/13 01:13:45;;;;;;;3.80;2.65;;;15.10;99.90;;;;;;5026072;28;20222;-74
2022/04/13 01:16:14;;;;;;;3.15;2.20;;;15.10;99.90;;;;;;4970760;28;20208;-72
2022/04/13 01:18:45;;;;;;;3.92;2.33;;;15.10;99.90;;;;;;4966358;28;20211;-73
2022/04/13 01:21:13;;;;;;;3.47;2.45;;;15.10;99.90;;;;;;4968469;28;20184;-72
2022/04/13 01:23:39;;;;;;;4.80;2.30;;;15.10;99.90;;;;;;4962601;28;20208;-73
2022/04/13 01:26:08;;;;;;;3.47;2.13;;;15.10;99.90;;;;;;4972302;28;20196;-72
2022/04/13 01:28:34;;;;;;;2.60;2.00;;;15.10;99.90;;;;;;4982327;28;20183;-73
2022/04/13 01:31:00;;;;;;;3.28;2.40;;;15.10;99.90;;;;;;5052601;28;20253;-73
2022/04/13 01:33:31;;;;;;;4.32;2.20;;;15.10;99.90;;;;;;4964674;28;20185;-71
2022/04/13 01:36:04;;;;;;;2.83;2.00;;;15.20;99.90;;;;;;4997832;28;20219;-72
2022/04/13 01:38:34;;;;;;;3.83;2.53;;;15.20;99.90;;;;;;4965232;28;20211;-72
2022/04/13 01:41:02;;;;;;;3.85;2.40;;;15.20;99.90;;;;;;4971433;28;20176;-73
2022/04/13 01:43:27;;;;;;;4.57;3.03;;;15.20;99.90;;;;;;4970388;28;20215;-72
2022/04/13 01:45:56;;;;;;;3.05;2.17;;;15.20;99.90;;;;;;4971658;28;20279;-72
2022/04/13 01:48:24;;;;;;;5.07;2.42;;;15.20;99.90;;;;;;4974324;28;20198;-71
2022/04/13 01:50:50;;;;;;;4.05;2.40;;;15.10;99.90;;;;;;4989648;28;20204;-71
2022/04/13 01:53:16;;;;;;;2.85;2.05;;;15.10;99.90;;;;;;4962711;28;20185;-68
2022/04/13 01:55:47;;;;;;;3.33;2.33;;;15.10;99.90;;;;;;4999166;28;20203;-70
2022/04/13 01:58:12;;;;;;;4.07;2.10;;;15.10;99.90;;;;;;4989152;28;20176;-71
2022/04/13 02:00:40;;;;;;;2.67;1.92;;;15.10;99.90;;;;;;4978814;28;20180;-71
2022/04/13 02:03:06;;;;;;;2.50;2.10;;;15.10;99.90;;;;;;4958904;28;20260;-69
2022/04/13 02:05:32;;;;;;;3.17;2.20;;;15.00;99.90;;;;;;4969188;28;20399;-72
2022/04/13 02:08:01;;;;;;;3.67;2.00;;;15.00;99.90;;;;;;4979361;28;20203;-71
2022/04/13 02:10:27;;;;;;;2.63;1.70;;;15.00;99.90;;;;;;4968942;28;20243;-71
2022/04/13 02:12:53;;;;;;;2.80;1.92;;;15.00;99.90;;;;;;4993486;28;20184;-68
2022/04/13 02:15:19;;;;;;;3.08;1.95;;;14.90;99.90;;;;;;4975031;28;20207;-67
2022/04/13 02:17:47;;;;;;;2.42;1.92;;;14.90;99.90;;;;;;4991882;28;20196;-70
2022/04/13 02:20:17;;;;;;;2.80;2.10;;;14.90;99.90;;;;;;4960117;28;20272;-72
2022/04/13 02:22:45;;;;;;;2.80;1.83;;;14.90;99.90;;;;;;4963948;28;20192;-72
2022/04/13 02:25:10;;;;;;;2.95;1.92;;;14.90;99.90;;;;;;5000396;28;20188;-71
2022/04/13 02:27:42;;;;;;;2.85;1.90;;;14.80;99.90;;;;;;4984483;28;20279;-71
2022/04/13 02:30:11;;;;;;;3.03;1.95;;;14.80;99.90;;;;;;4975365;28;20184;-72
2022/04/13 02:32:44;;;;;;;2.22;1.75;;;14.80;99.90;;;;;;4960125;28;20206;-66
2022/04/13 02:35:10;;;;;;;3.30;1.92;;;14.80;99.90;;;;;;5020834;28;20188;-72
2022/04/13 02:37:36;;;;;;;2.25;1.60;;;14.70;99.90;;;;;;4969278;28;20196;-72
2022/04/13 02:40:06;;;;;;;2.00;1.70;;;14.70;99.90;;;;;;4994821;28;20195;-72
2022/04/13 02:42:35;;;;;;;2.15;1.83;;;14.70;99.90;;;;;;4971111;28;20177;-71
2022/04/13 02:45:04;;;;;;;2.70;1.60;;;14.60;99.90;;;;;;4970769;28;20304;-72
2022/04/13 02:47:32;;;;;;;2.63;1.88;;;14.60;99.90;;;;;;4961398;28;20191;-72
2022/04/13 02:50:00;;;;;;;2.75;1.75;;;14.60;99.90;;;;;;4964868;28;20181;-72
2022/04/13 02:52:28;;;;;;;2.28;1.65;;;14.50;99.90;;;;;;4972913;28;20187;-71
2022/04/13 02:54:56;;;;;;;3.38;1.90;;;14.50;99.90;;;;;;5023286;28;20179;-72
2022/04/13 02:57:22;;;;;;;2.67;2.08;;;14.50;99.90;;;;;;4971044;28;20231;-72
2022/04/13 02:59:50;;;;;;;2.25;1.52;;;14.50;99.90;;;;;;5049857;28;20177;-72
2022/04/13 03:02:21;;;;;;;2.97;1.58;;;14.40;99.90;;;;;;4980974;28;20221;-72
2022/04/13 03:04:50;;;;;;;3.80;1.83;;;14.40;99.90;;;;;;5002290;28;20242;-70
2022/04/13 03:07:19;;;;;;;2.40;1.73;;;14.30;99.90;;;;;;4969654;28;20192;-72
2022/04/13 03:09:44;;;;;;;2.92;1.67;;;14.30;99.90;;;;;;4975623;28;20271;-72
2022/04/13 03:12:17;;;;;;;2.60;1.90;;;14.30;99.90;;;;;;4954721;28;20264;-72
2022/04/13 03:14:43;;;;;;;3.42;2.05;;;14.20;99.90;;;;;;4970738;28;20184;-72
2022/04/13 03:17:08;;;;;;;3.45;2.15;;;14.20;99.90;;;;;;4986097;28;20276;-71
2022/04/13 03:19:34;;;;;;;1.88;1.65;;;14.10;99.90;;;;;;4978244;28;20176;-72
2022/04/13 03:22:02;;;;;;;2.65;1.90;;;14.10;99.90;;;;;;4999418;28;20168;-72
2022/04/13 03:24:30;;;;;;;2.33;1.80;;;14.00;99.90;;;;;;4967254;28;20240;-72
2022/04/13 03:26:58;;;;;;;3.83;1.98;;;14.00;99.90;;;;;;4980833;28;20271;-71
2022/04/13 03:29:24;;;;;;;3.58;2.00;;;13.90;99.90;;;;;;4982264;28;20191;-72
2022/04/13 03:31:56;;;;;;;2.50;1.90;;;13.90;99.90;;;;;;5053746;28;20192;-72
2022/04/13 03:34:28;;;;;;;3.35;2.10;;;13.80;99.90;;;;;;4973150;28;20324;-71
2022/04/13 03:36:53;;;;;;;3.13;1.92;;;13.80;99.90;;;;;;4981051;28;20215;-71
2022/04/13 03:39:21;;;;;;;3.67;2.20;;;13.80;99.90;;;;;;4970453;28;20185;-71
2022/04/13 03:41:52;;;;;;;3.28;2.08;;;13.70;99.90;;;;;;4968130;28;20167;-72
2022/04/13 03:44:18;;;;;;;3.10;1.90;;;13.70;99.90;;;;;;4968847;28;20266;-72
2022/04/13 03:46:43;;;;;;;4.65;2.30;;;13.70;99.90;;;;;;4973761;28;20180;-71
2022/04/13 03:49:09;;;;;;;3.55;1.90;;;13.60;99.90;;;;;;4958929;28;20267;-70
2022/04/13 03:51:37;;;;;;;4.25;2.10;;;13.60;99.90;;;;;;4962773;28;20200;-71
2022/04/13 03:54:03;;;;;;;2.30;1.83;;;13.60;99.90;;;;;;5007984;28;20276;-72
2022/04/13 03:56:31;;;;;;;4.22;2.28;;;13.50;99.90;;;;;;4980380;28;20222;-71
2022/04/13 03:59:03;;;;;;;2.40;1.80;;;13.50;99.90;;;;;;4966418;28;20200;-72
2022/04/13 04:01:31;;;;;;;2.72;2.00;;;13.50;99.90;;;;;;4971385;28;20188;-72
2022/04/13 04:03:57;;;;;;;2.60;2.05;;;13.50;99.90;;;;;;4968064;28;20230;-72
2022/04/13 04:06:27;;;;;;;2.90;1.95;;;13.50;99.90;;;;;;4967880;28;20184;-72
2022/04/13 04:08:53;;;;;;;2.58;1.92;;;13.50;99.90;;;;;;4974432;28;20198;-69
2022/04/13 04:11:21;;;;;;;2.45;1.83;;;13.40;99.90;;;;;;4970513;28;20200;-72
2022/04/13 04:13:47;;;;;;;2.28;1.67;;;13.40;99.90;;;;;;4974681;28;20177;-72
2022/04/13 04:16:16;;;;;;;3.85;1.85;;;13.40;99.90;;;;;;4968884;28;20207;-71
2022/04/13 04:18:48;;;;;;;2.72;1.80;;;13.40;99.90;;;;;;4961570;28;20208;-71
2022/04/13 04:21:15;;;;;;;3.10;2.08;;;13.40;99.90;;;;;;4959294;28;20177;-71
2022/04/13 04:23:41;;;;;;;3.97;1.90;;;13.40;99.90;;;;;;4960513;28;20192;-71
2022/04/13 04:26:10;;;;;;;2.50;2.00;;;13.40;99.90;;;;;;4977809;28;20262;-72
2022/04/13 04:28:35;;;;;;;2.60;1.90;;;13.40;99.90;;;;;;4984307;28;20189;-72
2022/04/13 04:31:04;;;;;;;2.90;1.88;;;13.40;99.90;;;;;;4993609;28;20204;-72
2022/04/13 04:33:29;;;;;;;3.13;1.88;;;13.30;99.90;;;;;;5004473;28;20186;-71
2022/04/13 04:35:59;;;;;;;3.42;2.10;;;13.30;99.90;;;;;;4968934;28;20197;-72
2022/04/13 04:38:27;;;;;;;2.40;1.80;;;13.30;99.90;;;;;;4966577;28;20200;-72
2022/04/13 04:40:53;;;;;;;2.50;2.00;;;13.30;99.90;;;;;;4980064;28;20191;-68
2022/04/13 04:43:21;;;;;;;3.38;2.05;;;13.30;99.90;;;;;;4969962;28;20188;-72
2022/04/13 04:45:47;;;;;;;4.28;2.28;;;13.20;99.90;;;;;;4975959;28;20248;-72
2022/04/13 04:48:12;;;;;;;4.07;2.00;;;13.20;99.90;;;;;;5029316;28;20200;-70
2022/04/13 04:50:38;;;;;;;4.35;2.30;;;13.20;99.90;;;;;;4983566;28;20223;-66
2022/04/13 04:53:04;;;;;;;2.58;1.98;;;13.20;99.90;;;;;;4970346;28;20254;-69
2022/04/13 04:55:32;;;;;;;5.20;2.10;;;13.20;99.90;;;;;;4966178;28;20200;-65
2022/04/13 04:57:58;;;;;;;3.70;1.98;;;13.20;99.90;;;;;;4958913;28;20288;-67
2022/04/13 05:00:26;;;;;;;3.80;2.00;;;13.20;99.90;;;;;;4966733;28;20259;-67
2022/04/13 05:02:53;;;;;;;2.55;1.90;;;13.20;99.90;;;;;;5014751;28;20196;-66
2022/04/13 05:05:19;;;;;;;4.05;2.10;;;13.20;99.90;;;;;;4961329;28;20199;-67
2022/04/13 05:07:46;;;;;;;4.97;2.35;;;13.20;99.90;;;;;;4971436;28;20176;-66
2022/04/13 05:10:13;;;;;;;3.03;1.80;;;13.20;99.90;;;;;;4964557;28;20204;-67
2022/04/13 05:12:56;;;;;;;2.80;2.03;;;13.20;99.90;;;;;;5000951;28;20422;-67
2022/04/13 05:15:22;;;;;;;2.53;1.77;;;13.20;99.90;;;;;;4964996;28;20215;-66
2022/04/13 05:17:50;;;;;;;4.03;2.20;;;13.20;99.90;;;;;;4971236;28;20196;-66
2022/04/13 05:20:18;;;;;;;3.75;1.80;;;13.30;99.90;;;;;;4996332;28;20176;-67
2022/04/13 05:22:46;;;;;;;4.53;2.50;;;13.30;99.90;;;;;;4968962;28;20177;-67
2022/04/13 05:25:14;;;;;;;4.53;2.40;;;13.30;99.90;;;;;;4971454;28;20215;-67
2022/04/13 05:27:40;;;;;;;6.10;1.98;;;13.30;99.90;;;;;;4968332;28;20272;-67
2022/04/13 05:30:08;;;;;;;5.10;2.40;;;13.40;99.90;;;;;;4960121;28;20245;-66
2022/04/13 05:32:57;;;;;;;6.15;2.17;;;13.40;99.90;;;;;;4980736;28;20172;-67
2022/04/13 05:35:26;;;;;;;5.85;2.35;;;13.50;99.90;;;;;;4970492;28;20295;-67
2022/04/13 05:37:53;;;;;;;3.10;2.10;;;13.50;99.90;;;;;;4986588;28;20188;-67
2022/04/13 05:40:23;;;;;;;3.75;2.08;;;13.60;99.90;;;;;;5051036;28;20179;-67
2022/04/13 05:42:53;;;;;;;2.95;2.13;;;13.60;99.90;;;;;;4977888;28;20204;-67
2022/04/13 05:45:20;;;;;;;3.55;2.03;;;13.70;99.90;;;;;;4968979;28;20171;-67
2022/04/13 05:47:48;;;;;;;3.42;2.25;;;13.80;99.90;;;;;;4971471;28;20204;-69
2022/04/13 05:50:17;;;;;;;4.07;2.00;;;13.80;99.90;;;;;;4972068;28;20171;-69
2022/04/13 05:52:43;;;;;;;3.15;2.05;;;13.90;99.90;;;;;;4961234;28;20216;-68
2022/04/13 05:55:12;;;;;;;3.45;2.10;;;14.00;99.90;;;;;;4969555;28;20196;-67
2022/04/13 05:57:38;;;;;;;3.20;2.35;;;14.10;99.90;;;;;;4982332;28;20222;-66
2022/04/13 06:00:08;;;;;;;3.65;2.38;;;14.20;99.90;;;;;;4967991;28;20200;-67
2022/04/13 06:02:38;;;;;;;5.93;2.60;;;14.30;99.90;;;;;;4962528;28;20219;-68
2022/04/13 06:05:07;;;;;;;6.10;2.25;;;14.40;99.90;;;;;;4970737;28;20172;-66
2022/04/13 06:07:33;;;;;;;3.10;2.20;;;14.50;99.90;;;;;;5001379;28;20204;-67
2022/04/13 06:10:01;;;;;;;4.80;3.50;;;14.60;99.90;;;;;;4968053;28;20184;-68
2022/04/13 06:12:30;;;;;;;5.30;3.20;;;14.70;99.90;;;;;;4977516;28;20175;-68
2022/04/13 06:15:09;;;;;;;3.25;2.60;;;14.80;99.90;;;;;;5036387;28;20176;-67
2022/04/13 06:17:38;;;;;;;4.47;3.05;;;14.80;99.90;;;;;;4967995;28;20237;-68
2022/04/13 06:20:05;;;;;;;9.27;6.22;;;14.90;99.90;;;;;;4978791;28;20295;-68
2022/04/13 06:22:41;;;;;;;5.72;3.90;;;15.00;99.90;;;;;;4974571;28;20187;-66
2022/04/13 06:25:07;;;;;;;3.97;2.90;;;15.10;99.90;;;;;;5005816;28;20219;-67
2022/04/13 06:27:36;;;;;;;4.55;2.70;;;15.20;99.90;;;;;;4975430;28;20191;-67
2022/04/13 06:30:03;;;;;;;5.53;2.90;;;15.30;99.90;;;;;;4988598;28;20176;-67
2022/04/13 06:32:40;;;;;;;5.82;2.80;;;15.30;99.90;;;;;;4974263;28;20309;-68
2022/04/13 06:35:08;;;;;;;3.92;2.50;;;15.40;99.90;;;;;;4988415;28;20186;-68
2022/04/13 06:37:43;;;;;;;3.63;2.47;;;15.50;99.90;;;;;;4973818;28;20267;-68
2022/04/13 06:40:09;;;;;;;5.22;3.65;;;15.60;99.90;;;;;;4974907;28;20211;-68
2022/04/13 06:42:39;;;;;;;5.85;3.53;;;15.70;99.90;;;;;;5004113;28;20188;-67
2022/04/13 06:45:11;;;;;;;4.95;3.15;;;15.70;99.90;;;;;;4986864;28;20260;-67
2022/04/13 06:47:40;;;;;;;6.18;2.85;;;15.80;99.90;;;;;;4997927;28;20191;-66
2022/04/13 06:50:07;;;;;;;4.55;2.22;;;15.90;99.90;;;;;;4972899;28;20195;-66
2022/04/13 06:52:34;;;;;;;4.93;2.30;;;16.00;99.90;;;;;;4971546;28;20191;-64
2022/04/13 06:55:03;;;;;;;3.42;2.40;;;16.00;99.90;;;;;;5005920;28;20176;-66
2022/04/13 06:57:30;;;;;;;4.38;2.38;;;16.10;99.90;;;;;;4993427;28;20228;-65
2022/04/13 06:59:56;;;;;;;5.18;2.63;;;16.20;99.90;;;;;;5005971;28;20173;-67
2022/04/13 07:02:25;;;;;;;5.57;2.50;;;16.20;99.90;;;;;;5031920;28;20184;-67
2022/04/13 07:04:53;;;;;;;7.63;2.95;;;16.30;99.90;;;;;;4986655;28;20219;-67
2022/04/13 07:07:19;;;;;;;4.50;2.80;;;16.40;99.90;;;;;;5008280;28;20198;-66
2022/04/13 07:09:47;;;;;;;4.53;2.60;;;16.40;99.90;;;;;;5005164;28;20191;-67
2022/04/13 07:12:13;;;;;;;4.20;2.50;;;16.50;99.90;;;;;;4968173;28;20202;-67
2022/04/13 07:14:43;;;;;;;3.67;2.35;;;16.50;99.90;;;;;;4975688;28;20198;-67
2022/04/13 07:17:09;;;;;;;5.57;2.85;;;16.60;99.90;;;;;;5000157;28;20204;-66
2022/04/13 07:19:35;;;;;;;5.28;2.85;;;16.70;99.90;;;;;;4972689;28;20176;-67
2022/04/13 07:22:01;;;;;;;4.38;2.80;;;16.70;99.90;;;;;;4968940;28;20184;-67
2022/04/13 07:24:29;;;;;;;3.65;2.47;;;16.80;99.90;;;;;;4996846;28;20206;-67
2022/04/13 07:26:55;;;;;;;4.70;2.60;;;16.80;99.90;;;;;;4971586;28;20191;-67
2022/04/13 07:29:23;;;;;;;3.72;2.40;;;16.90;99.90;;;;;;4967755;28;20204;-67
2022/04/13 07:31:49;;;;;;;3.65;2.30;;;16.90;99.90;;;;;;4991532;28;20169;-67
2022/04/13 07:34:14;;;;;;;5.75;2.53;;;17.00;99.90;;;;;;4979119;28;20191;-67
2022/04/13 07:36:40;;;;;;;2.88;2.22;;;17.10;99.90;;;;;;4981382;28;20212;-67
2022/04/13 07:39:08;;;;;;;6.40;2.58;;;17.10;99.90;;;;;;5046267;28;20188;-67
2022/04/13 07:41:33;;;;;;;5.88;2.63;;;17.20;99.90;;;;;;4998157;28;20195;-68
2022/04/13 07:44:00;;;;;;;4.18;2.47;;;17.30;99.90;;;;;;4959876;28;20182;-66
2022/04/13 07:46:27;;;;;;;4.45;2.38;;;17.40;99.90;;;;;;4995357;28;20269;-66
2022/04/13 07:48:56;;;;;;;9.55;3.00;;;17.50;99.90;;;;;;4964015;28;20224;-68
2022/04/13 07:51:21;;;;;;;4.65;2.40;;;17.50;99.90;;;;;;4972514;28;20250;-67
2022/04/13 07:53:49;;;;;;;3.40;2.40;;;17.60;99.90;;;;;;4998054;28;20196;-67
2022/04/13 07:56:15;;;;;;;5.75;2.95;;;17.70;99.90;;;;;;4971411;28;20305;-66
2022/04/13 07:58:43;;;;;;;4.93;2.60;;;17.80;99.90;;;;;;4984364;28;20177;-67
2022/04/13 08:01:09;;;;;;;3.95;2.60;;;17.90;99.90;;;;;;4968211;28;20192;-66
2022/04/13 08:03:35;;;;;;;6.15;3.13;;;18.00;99.90;;;;;;4970654;28;20165;-65
2022/04/13 08:06:05;;;;;;;5.95;3.20;;;18.10;99.90;;;;;;4966481;28;20181;-66
2022/04/13 08:08:33;;;;;;;7.43;3.58;;;18.10;99.90;;;;;;5000427;28;20204;-67
2022/04/13 08:11:01;;;;;;;8.23;3.33;;;18.20;99.90;;;;;;4970402;28;20203;-67
2022/04/13 08:13:27;;;;;;;9.15;3.67;;;18.30;99.90;;;;;;4967390;28;20180;-67
2022/04/13 08:15:52;;;;;;;6.57;3.50;;;18.40;99.90;;;;;;4971081;28;20192;-67
2022/04/13 08:18:18;;;;;;;6.97;3.63;;;18.40;99.90;;;;;;5003694;28;20184;-66
2022/04/13 08:20:45;;;;;;;7.15;4.15;;;18.50;99.90;;;;;;4975418;28;20412;-67
2022/04/13 08:23:11;;;;;;;6.95;4.03;;;18.50;99.90;;;;;;4991952;28;20255;-67
2022/04/13 08:25:39;;;;;;;7.47;4.28;;;18.60;99.90;;;;;;4979036;28;20206;-67
2022/04/13 08:28:06;;;;;;;12.52;4.25;;;18.70;99.90;;;;;;4967836;28;20341;-67
2022/04/13 08:30:33;;;;;;;7.50;4.65;;;18.70;99.90;;;;;;5002133;28;20249;-69
2022/04/13 08:32:58;;;;;;;8.30;4.20;;;18.80;99.90;;;;;;4957384;28;20220;-67
2022/04/13 08:35:24;;;;;;;7.40;4.22;;;18.90;99.90;;;;;;4983794;28;20185;-67
2022/04/13 08:37:50;;;;;;;7.20;4.45;;;19.00;99.90;;;;;;4961910;28;20263;-67
2022/04/13 08:40:17;;;;;;;8.20;4.90;;;19.10;99.90;;;;;;4968536;28;20183;-67
2022/04/13 08:43:04;;;;;;;7.40;4.88;;;19.20;99.90;;;;;;4972862;28;20187;-66
2022/04/13 08:45:42;;;;;;;5.43;3.80;;;19.30;99.90;;;;;;4964472;28;20224;-67
2022/04/13 08:48:18;;;;;;;5.43;3.83;;;19.40;99.90;;;;;;4976093;28;20176;-67
2022/04/13 08:50:45;;;;;;;6.75;4.25;;;19.50;99.90;;;;;;5000155;28;20211;-67
2022/04/13 08:53:14;;;;;;;9.02;4.40;;;19.60;99.90;;;;;;4973831;28;20299;-67
2022/04/13 08:55:52;;;;;;;7.60;4.90;;;19.70;99.90;;;;;;4994966;28;20206;-68
2022/04/13 08:58:19;;;;;;;7.35;4.35;;;19.70;99.90;;;;;;4995748;28;20287;-68
2022/04/13 09:00:50;;;;;;;6.00;3.92;;;19.80;99.90;;;;;;4959896;28;20238;-65
2022/04/13 09:03:28;;;;;;;6.78;4.20;;;19.80;99.90;;;;;;4969277;28;20182;-67
2022/04/13 09:05:56;;;;;;;8.23;4.38;;;19.90;99.90;;;;;;4965963;28;20214;-66
2022/04/13 09:08:33;;;;;;;10.35;5.13;;;20.00;99.90;;;;;;4970273;28;20177;-67
2022/04/13 09:11:02;;;;;;;7.97;4.82;;;20.00;99.90;;;;;;4972765;28;20237;-66
2022/04/13 09:13:33;;;;;;;7.38;4.45;;;20.10;99.90;;;;;;4954612;28;20216;-67
2022/04/13 09:15:59;;;;;;;9.77;4.47;;;20.20;99.90;;;;;;4963824;28;20203;-66
2022/04/13 09:18:27;;;;;;;5.95;4.45;;;20.20;99.90;;;;;;4970599;28;20206;-67
2022/04/13 09:20:54;;;;;;;6.20;4.38;;;20.20;99.90;;;;;;4970812;28;20183;-67
2022/04/13 09:23:21;;;;;;;6.55;4.53;;;20.30;99.90;;;;;;4998898;28;20229;-67
2022/04/13 09:25:51;;;;;;;6.63;4.65;;;20.30;99.90;;;;;;5039529;28;20200;-66
2022/04/13 09:28:17;;;;;;;7.90;4.60;;;20.40;99.90;;;;;;4971971;28;20193;-69
2022/04/13 09:30:43;;;;;;;10.65;5.20;;;20.50;99.90;;;;;;4987459;28;20204;-67
2022/04/13 09:33:08;;;;;;;9.23;4.30;;;20.60;99.90;;;;;;5000257;28;20187;-67
2022/04/13 09:35:34;;;;;;;6.60;4.00;;;20.70;99.90;;;;;;5006165;28;20214;-66
2022/04/13 09:38:05;;;;;;;7.05;4.30;;;20.80;99.90;;;;;;4991525;28;20211;-67
2022/04/13 09:40:37;;;;;;;8.07;4.07;;;20.90;99.90;;;;;;4994669;28;20251;-66
2022/04/13 09:43:05;;;;;;;5.10;3.03;;;21.00;99.90;;;;;;4965735;28;20177;-68
2022/04/13 09:45:36;;;;;;;4.68;2.90;;;21.10;99.90;;;;;;4985540;28;20180;-66
2022/04/13 09:48:06;;;;;;;5.80;3.05;;;21.20;99.90;;;;;;4968013;28;20168;-66
2022/04/13 09:50:33;;;;;;;5.05;3.50;;;21.40;99.90;;;;;;4969907;28;20199;-67
2022/04/13 09:53:06;;;;;;;4.10;2.92;;;21.50;99.90;;;;;;4965314;28;20180;-67
2022/04/13 09:55:59;;;;;;;5.55;3.28;;;21.60;99.90;;;;;;4991878;28;20306;-68
2022/04/13 09:58:33;;;;;;;6.25;3.63;;;21.80;99.90;;;;;;4953128;28;20181;-68
2022/04/13 10:01:03;;;;;;;6.57;3.50;;;22.00;99.90;;;;;;4976871;28;20172;-68
2022/04/13 10:03:31;;;;;;;7.65;3.88;;;22.10;99.90;;;;;;4971448;28;20208;-68
2022/04/13 10:05:58;;;;;;;4.63;3.35;;;22.50;99.90;;;;;;4989338;28;20196;-67
2022/04/13 10:08:28;;;;;;;7.43;4.03;;;22.80;99.90;;;;;;4975390;28;20235;-67
2022/04/13 10:10:59;;;;;;;6.15;2.95;;;23.30;99.90;;;;;;4993592;28;20275;-67
2022/04/13 10:13:40;;;;;;;3.25;2.53;;;23.70;99.90;;;;;;4972517;28;20195;-67
2022/04/13 10:16:10;;;;;;;4.30;2.63;;;24.00;99.90;;;;;;4970297;28;20216;-67
2022/04/13 10:18:55;;;;;;;3.22;2.53;;;24.30;99.90;;;;;;4968415;28;20192;-68
2022/04/13 10:21:35;;;;;;;7.10;3.50;;;24.70;99.90;;;;;;4997660;28;20200;-68
2022/04/13 10:24:07;;;;;;;5.32;3.50;;;25.00;99.90;;;;;;4979701;28;20214;-67
2022/04/13 10:26:33;;;;;;;7.13;4.07;;;25.30;99.90;;;;;;4988072;28;20259;-66
2022/04/13 10:28:58;;;;;;;3.63;2.50;;;25.50;99.90;;;;;;5001664;28;20336;-65
2022/04/13 10:31:24;;;;;;;3.47;2.40;;;25.70;99.90;;;;;;4973659;28;20195;-68
2022/04/13 10:33:52;;;;;;;4.72;3.22;;;25.80;99.90;;;;;;4994468;28;20203;-68
2022/04/13 10:36:19;;;;;;;6.25;3.05;;;25.80;99.90;;;;;;4996826;28;20200;-68
2022/04/13 10:38:45;;;;;;;5.75;3.08;;;25.60;99.90;;;;;;4992093;28;20187;-66
2022/04/13 10:41:20;;;;;;;8.63;2.80;;;25.40;99.90;;;;;;4962300;28;20196;-68
2022/04/13 10:43:52;;;;;;;4.45;2.72;;;25.20;99.90;;;;;;5014929;28;20182;-68
2022/04/13 10:46:21;;;;;;;4.32;3.08;;;25.20;99.90;;;;;;4970664;28;20284;-68
2022/04/13 10:48:54;;;;;;;5.13;3.30;;;25.20;99.90;;;;;;4973311;28;20190;-68
2022/04/13 10:51:25;;;;;;;5.80;3.40;;;25.30;99.90;;;;;;4975853;28;20168;-67
2022/04/13 10:54:02;;;;;;;5.88;4.20;;;25.30;99.90;;;;;;4970706;28;20204;-67
2022/04/13 10:56:31;;;;;;;6.07;3.92;;;25.40;98.40;;;;;;4966313;28;20196;-67
2022/04/13 10:59:15;;;;;;;7.88;4.65;;;25.50;99.90;;;;;;4965888;28;20197;-66
2022/04/13 11:02:15;;;;;;;8.60;4.68;;;25.50;99.40;;;;;;4988927;28;20184;-67
2022/04/13 11:04:46;;;;;;;7.75;4.50;;;25.50;99.00;;;;;;4954538;28;20192;-67
2022/04/13 11:07:12;;;;;;;11.25;4.35;;;25.60;99.90;;;;;;4969545;28;20200;-65
2022/04/13 11:09:44;;;;;;;5.95;4.05;;;25.70;99.90;;;;;;5027188;28;20269;-67
2022/04/13 11:12:12;;;;;;;5.70;3.85;;;25.80;99.90;;;;;;4971837;28;20188;-67
2022/04/13 11:14:55;;;;;;;8.55;4.40;;;25.90;99.90;;;;;;4964190;28;20185;-67
2022/04/13 11:17:27;;;;;;;5.18;3.45;;;26.00;98.90;;;;;;5004986;28;20219;-67
2022/04/13 11:20:13;;;;;;;5.07;3.22;;;26.00;98.90;;;;;;4969549;28;20287;-68
2022/04/13 11:22:39;;;;;;;5.10;3.03;;;26.00;98.20;;;;;;4947567;28;20528;-67
2022/04/13 11:25:05;;;;;;;8.38;3.42;;;26.20;99.90;;;;;;5054857;28;20210;-66
2022/04/13 11:27:56;;;;;;;4.63;2.80;;;26.30;99.90;;;;;;4975575;28;20314;-67
2022/04/13 11:30:22;;;;;;;5.40;2.83;;;26.50;98.80;;;;;;5035750;28;20257;-67
2022/04/13 11:32:53;;;;;;;5.85;2.83;;;26.50;99.30;;;;;;5007648;28;20205;-67
2022/04/13 11:35:26;;;;;;;5.07;2.83;;;26.60;98.70;;;;;;4959422;28;20188;-67
2022/04/13 11:38:09;;;;;;;7.22;3.15;;;26.70;97.40;;;;;;4990305;28;20268;-67
2022/04/13 11:40:35;;;;;;;5.95;2.97;;;26.80;97.20;;;;;;5073119;28;20183;-67
2022/04/13 11:43:04;;;;;;;5.95;3.03;;;26.80;98.80;;;;;;4973010;28;20191;-66
2022/04/13 11:45:33;;;;;;;5.85;2.95;;;26.90;97.30;;;;;;4972419;28;20200;-66
2022/04/13 11:48:03;;;;;;;5.25;2.67;;;27.00;98.10;;;;;;4994999;28;20264;-67
2022/04/13 11:50:36;;;;;;;4.78;2.55;;;27.10;97.90;;;;;;4980760;28;20212;-67
2022/04/13 11:53:14;;;;;;;6.80;3.08;;;27.20;97.20;;;;;;4965157;28;20290;-67
2022/04/13 11:55:39;;;;;;;4.80;2.65;;;27.20;94.70;;;;;;4973131;28;20203;-66
2022/04/13 11:58:07;;;;;;;5.30;2.63;;;27.10;95.90;;;;;;4972972;28;20245;-67
2022/04/13 12:00:43;;;;;;;4.50;2.58;;;26.90;95.40;;;;;;5030067;28;20180;-66
2022/04/13 12:03:13;;;;;;;5.65;2.72;;;26.60;93.90;;;;;;4974858;28;20171;-66
2022/04/13 12:05:40;;;;;;;6.25;2.65;;;26.30;94.60;;;;;;4968711;28;20188;-68
2022/04/13 12:08:17;;;;;;;4.57;2.42;;;26.10;94.40;;;;;;4988022;28;20181;-67
2022/04/13 12:10:53;;;;;;;7.07;2.83;;;25.90;94.10;;;;;;4963430;28;20201;-66
2022/04/13 12:13:18;;;;;;;6.78;2.72;;;25.70;94.30;;;;;;4955252;28;20168;-65
2022/04/13 12:15:55;;;;;;;6.30;2.78;;;25.60;95.10;;;;;;4963466;28;20253;-66
2022/04/13 12:18:25;;;;;;;4.38;2.75;;;25.50;94.80;;;;;;4975709;28;20183;-67
2022/04/13 12:20:53;;;;;;;8.07;3.03;;;25.30;94.50;;;;;;4999505;28;20310;-67
2022/04/13 12:23:20;;;;;;;7.40;2.78;;;25.20;94.80;;;;;;4999814;28;20252;-67
2022/04/13 12:25:52;;;;;;;4.53;2.60;;;25.00;94.70;;;;;;4963474;28;20192;-67
2022/04/13 12:28:22;;;;;;;6.65;2.63;;;24.90;95.00;;;;;;4986239;28;20191;-64
2022/04/13 12:31:00;;;;;;;6.50;2.45;;;24.80;95.00;;;;;;4968850;28;20190;-67
2022/04/13 12:33:28;;;;;;;3.85;2.15;;;24.60;94.40;;;;;;4966042;28;20180;-67
2022/04/13 12:35:55;;;;;;;4.68;2.08;;;24.40;94.80;;;;;;4958719;28;20329;-67
2022/04/13 12:38:41;;;;;;;4.47;2.60;;;24.40;94.90;;;;;;4962694;28;20189;-67
2022/04/13 12:41:18;;;;;;;4.75;2.28;;;24.30;95.20;;;;;;4966265;28;20401;-68
2022/04/13 12:43:53;;;;;;;5.28;3.13;;;24.40;95.90;;;;;;4972492;28;20164;-66
2022/04/13 12:46:20;;;;;;;4.88;2.63;;;24.50;95.80;;;;;;4968722;28;20180;-68
2022/04/13 12:48:48;;;;;;;6.22;3.15;;;24.70;96.40;;;;;;5032316;28;20324;-69
2022/04/13 12:51:17;;;;;;;9.27;2.90;;;24.80;96.30;;;;;;4971575;28;20180;-67
2022/04/13 12:53:55;;;;;;;4.07;2.20;;;25.00;96.10;;;;;;4962715;28;20233;-69
2022/04/13 12:56:27;;;;;;;4.60;2.75;;;25.10;94.90;;;;;;4993555;28;20200;-67